1964 Severe Tropical Cyclone DORA (1964028S09131)


IBTrACS version v04r00. Visit IBTrACS website for data access.
Please direct all questions to the IBTrACS Q and A forum

Storm track - Intensity - Wind Radii - Intensity Data - Source Data - All data

Summary Information

Storm ID 1964028S09131
Start Jan 27 23Z
Landfall Feb 3 05Z
Max Intensity 70 kt (Feb 2 18Z), 974 mb (Feb 2 21Z)
End Feb 11 23Z
ATCF IDs ,SH131964
Track status Best track data.

Storm track plot

Map of storm track

Intensity plots

Map of storm track

Radial wind information

No radial wind information for this storm


Position and Intensity Table

BASIN ISO_TIME_________ NATURE LAT LON WMO PRES USA WIND BOM PRES DS824 WIND DS824 PRES TD9636 WIND NEUMANN WIND NEUMANN PRES
degrees north degrees east mb kts mb kts mb kts kts mb
SI 1964-01-27 23:00:00 NR -9.20 131.20
SI 23:30:00 NR -9.21 131.17 1006 1006
SI 1964-01-28 00:00:00 TS -9.21 131.20 20 1005 15 1006
SI 03:00:00 TS -9.32 131.48 20 1005 16 1005
SI 06:00:00 TS -9.42 131.75 20 1005 17 1005 20 1005
SI 09:00:00 TS -9.51 132.04 22 1005 18 1005 20 1005
SI 11:00:00 TS -9.57 132.23 24 1005 19 1005 20 1005
SI 11:30:00 TS -9.59 132.27 1005 24 1005 19 1005 20 1005
SI 12:00:00 TS -9.61 132.32 25 1005 20 1005 20 1005
SI 15:00:00 TS -9.71 132.58 25 1005 18 1005 20 1005
SI 18:00:00 TS -9.81 132.83 25 1005 17 1005 20 1005
SI 21:00:00 TS -9.91 133.07 25 1005 16 1005 17 1005
SI 23:00:00 TS -9.97 133.25 25 1005 15 1005 15 1005
SI 23:30:00 TS -9.99 133.29 1006 25 1006 15 1005 15 1005
SI 1964-01-29 00:00:00 TS -10.01 133.34 25 1005 15 1006 15 1006
SI 03:00:00 TS -10.13 133.69 22 1005 17 1005 17 1005
SI 06:00:00 TS -10.25 134.05 20 1004 20 1004 20 1004
SI 09:00:00 TS -10.36 134.40 17 1003 22 1003 22 1003
SI 11:00:00 TS -10.42 134.62 15 1003 24 1003 24 1003
SI 11:30:00 TS -10.44 134.67 1003 15 1003 24 1003 24 1003
SI 12:00:00 TS -10.46 134.73 15 1002 25 1003 25 1003
SP 15:00:00 TS -10.56 135.01 12 1001 26 1002 25 1002
SP 18:00:00 TS -10.66 135.28 10 1000 27 1001 25 1001
SP 21:00:00 TS -10.76 135.55 999 28 1000 27 1000
SP 23:00:00 TS -10.83 135.73 999 29 999 29 999
SP 23:30:00 TS -10.84 135.78 999 999 29 999 29 999
SP 1964-01-30 00:00:00 TS -10.86 135.82 998 30 999 30 999
SP 03:00:00 TS -10.96 136.11 998 31 998 32 998
SP 06:00:00 TS -11.06 136.39 997 32 998 35 998
SP 09:00:00 TS -11.16 136.67 997 33 997 35 997
SP 11:00:00 TS -11.22 136.84 997 34 997 35 997
SP 11:30:00 TS -11.24 136.88 997 997 34 997 35 997
SP 12:00:00 TS -11.26 136.92 996 35 997 35 997
SP 15:00:00 TS -11.35 137.10 993 40 994 40 994
SP 18:00:00 TS -11.45 137.26 990 45 991 45 991
SP 21:00:00 TS -11.56 137.43 987 50 988 50 988
SP 23:00:00 TS -11.65 137.53 985 53 985 53 985
SP 23:30:00 TS -11.67 137.55 985 985 54 985 54 985
SP 1964-01-31 00:00:00 TS -11.70 137.58 984 55 985 55 985
SP 03:00:00 TS -11.86 137.71 983 56 984 55 984
SP 06:00:00 TS -12.04 137.84 982 57 983 55 983
SP 09:00:00 TS -12.25 137.98 981 58 982 57 982
SP 11:00:00 TS -12.38 138.08 981 59 981 59 981
SP 11:30:00 TS -12.42 138.11 981 981 59 981 59 981
SP 12:00:00 TS -12.45 138.13 981 60 981 60 981
SP 15:00:00 TS -12.64 138.26 981 60 981
SP 18:00:00 TS -12.82 138.38 981 60 981
SP 21:00:00 TS -12.99 138.51 981 60 981
SP 23:00:00 TS -13.08 138.60 981 981 60 981
SP 1964-02-01 00:00:00 TS -13.13 138.65 980 60 981
SP 03:00:00 TS -13.26 138.81 980 60 980
SP 06:00:00 TS -13.37 138.97 980 60 980
SP 09:00:00 TS -13.47 139.13 980 60 980
SP 11:00:00 TS -13.53 139.24 980 60 980
SP 11:30:00 TS -13.54 139.27 980 980 60 980
SP 12:00:00 TS -13.56 139.30 980 60 980 60 980
SP 15:00:00 TS -13.64 139.43 980 60 980 60 980
SP 18:00:00 TS -13.72 139.56 980 60 980 60 980
SP 21:00:00 TS -13.79 139.73 980 60 980 60 980
SP 23:00:00 TS -13.83 139.84 980 980 60 980 60 980
SP 1964-02-02 00:00:00 TS -13.86 139.90 979 60 980 60 980
SP 03:00:00 TS -13.94 140.08 979 61 979 62 979
SP 06:00:00 TS -14.02 140.27 978 62 978 65 978
SP 09:00:00 TS -14.11 140.49 977 63 977 65 977
SP 11:00:00 TS -14.18 140.64 977 977 64 977 65 977
SP 12:00:00 TS -14.21 140.71 976 65 977 65 977
SP 15:00:00 TS -14.31 140.89 976 65 976 67 976
SP 18:00:00 TS -14.44 141.07 975 65 975 70 975
SP 21:00:00 TS -14.59 141.27 974 65 974 65 974
SP 23:00:00 TS -14.71 141.39 974 974 65 974 61 974
SP 1964-02-03 00:00:00 TS -14.78 141.45 974 65 974 60 974
SP 02:00:00 TS -14.93 141.57 974 974 65 974 56 974
SP 03:00:00 TS -15.00 141.62 974 65 974 55 974
SP 05:00:00 TS -15.15 141.71 974 65 974 51 974
SP 06:00:00 TS -15.22 141.74 974 65 974 50 974
SP 09:00:00 TS -15.43 141.78 974 65 974 45 974
SP 11:00:00 TS -15.56 141.78 975 975 65 974 41 974
SP 12:00:00 TS -15.62 141.79 976 65 975 40 975
SP 15:00:00 TS -15.81 141.79 979 61 978 37 978
SP 18:00:00 TS -15.99 141.79 983 57 982 35 982
SP 21:00:00 TS -16.18 141.79 986 53 985 35 985
SP 23:00:00 TS -16.31 141.79 989 989 51 987 35 987
SP 1964-02-04 00:00:00 TS -16.37 141.78 989 50 989 35 989
SP 03:00:00 TS -16.57 141.76 990 47 990 35 990
SP 06:00:00 TS -16.77 141.74 991 45 991 35 991
SP 09:00:00 TS -16.97 141.73 992 42 992 35 992
SP 11:00:00 TS -17.11 141.73 993 993 40 992 35 992
SP 12:00:00 TS -17.17 141.73 993 40 993 35 993
SP 15:00:00 TS -17.36 141.74 994 38 994 35 994
SP 18:00:00 TS -17.55 141.75 995 37 995 35 995
SP 21:00:00 TS -17.76 141.77 997 36 996 35 996
SP 23:00:00 TS -17.90 141.78 998 998 35 997 35 997
SP 1964-02-05 00:00:00 TS -17.97 141.79 998 35 998 35 998
SP 03:00:00 TS -18.18 141.80 998 33 998 35 998
SP 06:00:00 TS -18.39 141.81 998 32 998 35 998
SP 09:00:00 TS -18.61 141.81 998 31 998 35 998
SP 11:00:00 TS -18.75 141.79 999 999 30 998 35 998
SP 12:00:00 TS -18.82 141.78 999 30 999 35 999
SP 15:00:00 TS -19.03 141.69 999 30 999 32 999
SP 18:00:00 TS -19.21 141.55 1000 30 1000 30 1000
SP 21:00:00 TS -19.36 141.40 1000 30 1000 30 1000
SP 23:00:00 TS -19.43 141.28 1001 1001 30 1000 30 1000
SP 1964-02-06 00:00:00 TS -19.46 141.21 1000 30 1001 30 1001
SP 03:00:00 TS -19.47 140.99 1000 30 1000 30 1000
SP 06:00:00 TS -19.42 140.75 1000 30 1000 30 1000
SP 09:00:00 TS -19.34 140.50 1000 30 1000 30 1000
SP 11:00:00 TS -19.27 140.35 1000 1000 30 1000 30 1000
SP 12:00:00 TS -19.24 140.28 1000 30 1000 30 1000
SP 15:00:00 TS -19.12 140.13 1000 30 1000 30 1000
SP 18:00:00 TS -19.00 140.01 1000 30 1000 30 1000
SP 21:00:00 TS -18.88 139.87 1000 30 1000 30 1000
SP 23:00:00 TS -18.81 139.78 1000 1000 30 1000 30 1000
SP 1964-02-07 00:00:00 TS -18.77 139.73 999 30 1000 30 1000
SP 03:00:00 TS -18.65 139.62 997 33 997 32 997
SP 06:00:00 TS -18.53 139.52 994 37 995 35 995
SP 09:00:00 TS -18.43 139.43 992 41 993 37 993
SP 11:00:00 TS -18.37 139.39 991 991 43 991 39 991
SP 12:00:00 TS -18.34 139.38 991 45 991 40 991
SP 15:00:00 TS -18.25 139.37 991 40 991
SP 18:00:00 TS -18.16 139.42 991 40 991
SP 21:00:00 TS -18.11 139.50 991 40 991
SP 23:00:00 TS -18.09 139.58 991 991 40 991
SP 1964-02-08 00:00:00 TS -18.09 139.61 40 991
SP 03:00:00 TS -18.05 139.82
SP 06:00:00 TS -18.01 140.08
SP 09:00:00 TS -18.01 140.34
SP 11:00:00 TS -18.00 140.51
SP 12:00:00 TS -17.99 140.59
SP 15:00:00 TS -17.95 140.79
SP 18:00:00 TS -17.89 140.99
SP 21:00:00 TS -17.84 141.23
SP 23:00:00 TS -17.81 141.41
SP 1964-02-09 00:00:00 TS -17.79 141.49
SP 03:00:00 TS -17.74 141.73
SP 06:00:00 TS -17.71 142.08
SP 09:00:00 TS -17.72 142.55
SP 11:00:00 TS -17.77 143.01
SP 12:00:00 TS -17.81 143.30
SP 15:00:00 TS -17.98 144.46
SP 18:00:00 TS -18.18 145.78
SP 21:00:00 TS -18.39 147.06
SP 23:00:00 TS -18.52 147.86 20
SP 1964-02-10 00:00:00 TS -18.59 148.22 20
SP 03:00:00 TS -18.80 149.17 20
SP 06:00:00 TS -19.02 150.03 21
SP 09:00:00 TS -19.27 150.88 22
SP 11:00:00 TS -19.42 151.42 23
SP 12:00:00 TS -19.48 151.69 23
SP 15:00:00 TS -19.62 152.48 23
SP 18:00:00 TS -19.70 153.19 23
SP 21:00:00 TS -19.76 153.80 23
SP 23:00:00 TS -19.79 154.16 23
SP 1964-02-11 00:00:00 TS -19.81 154.32 22
SP 03:00:00 TS -19.86 154.80 20
SP 06:00:00 TS -19.89 155.21 18
SP 09:00:00 TS -19.90 155.56 16
SP 11:00:00 TS -19.90 155.79 15
SP 12:00:00 TS -19.90 155.91 14
SP 15:00:00 TS -19.93 156.28 11
SP 18:00:00 TS -19.97 156.67 9
SP 21:00:00 NR -19.98 157.04 6
SP 23:00:00 NR -20.00 157.30 5

Source Information

Agency Information
USA bsh131964.txt
TOKYO
CMA
HKO
NEWDELHI
REUNION
BOM IDCKMSTM0S.csv:Line=3915:DORA
NADI
WELLINGTON
DS824 aus_area.dat:355:DORA
TD9636 cons_worldwide_trop_cyclone_18710101-19891231-006:Line=6807
TD9635
NEUMANN tracks.sh:Storm=98:DORA:BSH1364:BM332
MLC

All available IBTrACS Data

SEASON BASIN SUBBASIN ISO_TIME_________ NATURE LAT LON WMO PRES WMO AGENCY DIST2LAND LANDFALL IFLAG USA AGENCY USA ATCF_ID USA LAT USA LON USA WIND USA SSHS BOM LAT BOM LON BOM PRES BOM PRES_METHOD DS824 LAT DS824 LON DS824 STAGE DS824 WIND DS824 PRES TD9636 LAT TD9636 LON TD9636 STAGE TD9636 WIND NEUMANN LAT NEUMANN LON NEUMANN CLASS NEUMANN WIND NEUMANN PRES STORM SPEED STORM DIR
Year degrees north degrees east mb km km degrees north degrees east kts 1 degrees north degrees east mb degrees north degrees east kts mb degrees north degrees east kts degrees north degrees east kts mb kts degrees
1964 SI WA 1964-01-27 23:00:00 NR -9.20 131.20 134 134 __________O___ -1 -9.20 131.20 7 4 261
1964 SI WA 23:30:00 NR -9.21 131.17 1006 bom 134 134 ______O___P___ -1 -9.20 131.00 1006 -9.21 131.25 7 1 0
1964 SI WA 1964-01-28 00:00:00 TS -9.21 131.20 134 134 O_____P__OP___ jtwc_sh SH131964 -9.20 131.30 20 -1 -9.22 131.05 1005 -9.20 131.00 TC 15 1006 -9.22 131.30 7 6 110
1964 SI WA 03:00:00 TS -9.32 131.48 147 147 P_____P__PP___ SH131964 -9.32 131.54 20 -1 -9.37 131.37 1005 -9.34 131.32 TC 16 1005 -9.28 131.58 7 6 111
1964 SI WA 06:00:00 TS -9.42 131.75 166 166 O_____P__PP_O_ jtwc_sh SH131964 -9.40 131.80 20 -1 -9.50 131.68 1005 -9.48 131.63 TC 17 1005 -9.35 131.86 7 -9.40 131.70 TC 20 1005 6 109
1964 SI WA 09:00:00 TS -9.51 132.04 184 179 P_____P__PP_P_ SH131964 -9.44 132.10 22 -1 -9.62 131.97 1005 -9.60 131.92 TC 18 1005 -9.43 132.13 7 -9.57 132.00 TC 20 1005 6 108
1964 SI WA 11:00:00 TS -9.57 132.23 179 179 P_____P__PO_P_ SH131964 -9.47 132.30 24 -1 -9.68 132.16 1005 -9.67 132.11 TC 19 1005 -9.50 132.30 7 -9.67 132.20 TC 20 1005 6 109
1964 SI WA 11:30:00 TS -9.59 132.27 1005 bom 179 179 P_____O__PP_P_ SH131964 -9.49 132.35 24 -1 -9.70 132.20 1005 -9.68 132.16 TC 19 1005 -9.52 132.34 7 -9.68 132.25 TC 20 1005 6 111
1964 SI WA 12:00:00 TS -9.61 132.32 179 168 O_____P__OP_O_ jtwc_sh SH131964 -9.50 132.40 25 -1 -9.71 132.24 1005 -9.70 132.20 TC 20 1005 -9.54 132.38 7 -9.70 132.30 TC 20 1005 6 111
1964 SI WA 15:00:00 TS -9.71 132.58 171 162 P_____P__PP_P_ SH131964 -9.64 132.66 25 -1 -9.79 132.49 1005 -9.78 132.45 TC 18 1005 -9.66 132.61 7 -9.76 132.61 TC 20 1005 5 112
1964 SI WA 18:00:00 TS -9.81 132.83 166 159 O_____P__PP_O_ jtwc_sh SH131964 -9.80 132.90 25 -1 -9.85 132.73 1005 -9.84 132.69 TC 17 1005 -9.79 132.85 7 -9.80 132.90 TC 20 1005 5 112
1964 SI WA 21:00:00 TS -9.91 133.07 169 160 P_____P__PP_P_ SH131964 -9.91 133.13 25 -1 -9.92 132.98 1005 -9.91 132.94 TC 16 1005 -9.92 133.11 7 -9.88 133.15 TC 17 1005 5 111
1964 SI WA 23:00:00 TS -9.97 133.25 160 160 P_____P__PO_P_ SH131964 -9.97 133.30 25 -1 -9.98 133.15 1005 -9.97 133.11 TC 15 1005 -10.00 133.30 7 -9.96 133.31 TC 15 1005 6 110
1964 SI WA 23:30:00 TS -9.99 133.29 1006 bom 162 162 P_____O__PP_P_ SH131964 -9.98 133.35 25 -1 -10.00 133.20 1006 -9.98 133.15 TC 15 1005 -10.02 133.36 7 -9.98 133.36 TC 15 1005 6 109
1964 SI WA 1964-01-29 00:00:00 TS -10.01 133.34 162 159 O_____P__OP_O_ jtwc_sh SH131964 -10.00 133.40 25 -1 -10.02 133.25 1005 -10.00 133.20 TC 15 1006 -10.03 133.41 7 -10.00 133.40 TC 15 1006 7 110
1964 SI WA 03:00:00 TS -10.13 133.69 169 166 P_____P__PP_P_ SH131964 -10.11 133.78 22 -1 -10.16 133.56 1005 -10.14 133.51 TC 17 1005 -10.11 133.79 7 -10.14 133.69 TC 17 1005 7 109
1964 SI WA 06:00:00 TS -10.25 134.05 182 169 O_____P__PP_O_ jtwc_sh SH131964 -10.20 134.20 20 -1 -10.32 133.89 1004 -10.29 133.83 TC 20 1004 -10.18 134.18 7 -10.30 134.00 TC 20 1004 7 108
1964 SI WA 09:00:00 TS -10.36 134.40 169 169 P_____P__PP_P_ SH131964 -10.25 134.57 17 -1 -10.48 134.23 1003 -10.45 134.17 TC 22 1003 -10.25 134.57 7 -10.46 134.30 TC 22 1003 7 107
1964 SI WA 11:00:00 TS -10.42 134.62 179 179 P_____P__PO_P_ SH131964 -10.28 134.80 15 -1 -10.58 134.45 1003 -10.55 134.39 TC 24 1003 -10.30 134.80 2 -10.56 134.50 TC 24 1003 7 108
1964 SI WA 11:30:00 TS -10.44 134.67 1003 bom 185 175 P_____O__PP_P_ SH131964 -10.29 134.85 15 -1 -10.60 134.50 1003 -10.58 134.45 TC 24 1003 -10.31 134.85 2 -10.58 134.55 TC 24 1003 6 108
1964 SI WA 12:00:00 TS -10.46 134.73 175 169 O_____P__OP_O_ jtwc_sh SH131964 -10.30 134.90 15 -1 -10.62 134.55 1002 -10.60 134.50 TC 25 1003 -10.33 134.90 2 -10.60 134.60 TC 25 1003 6 110
1964 SP EA 15:00:00 TS -10.56 135.01 169 160 P_____P__PP_P_ SH131964 -10.39 135.17 12 -1 -10.73 134.86 1001 -10.71 134.81 TC 26 1002 -10.43 135.17 2 -10.71 134.90 TC 25 1002 6 111
1964 SP EA 18:00:00 TS -10.66 135.28 160 146 O_____P__PP_O_ jtwc_sh SH131964 -10.50 135.40 10 -1 -10.83 135.16 1000 -10.81 135.11 TC 27 1001 -10.53 135.42 2 -10.80 135.20 TC 25 1001 6 111
1964 SP EA 21:00:00 TS -10.76 135.55 145 145 P_____P__PP_P_ SH131964 -10.60 135.65 -1 -10.92 135.45 999 -10.91 135.40 TC 28 1000 -10.63 135.65 2 -10.90 135.50 TC 27 1000 6 110
1964 SP EA 23:00:00 TS -10.83 135.73 145 145 P_____P__PO_P_ SH131964 -10.67 135.82 -1 -10.98 135.65 999 -10.97 135.60 TC 29 999 -10.70 135.80 1 -10.97 135.70 TC 29 999 6 110
1964 SP EA 23:30:00 TS -10.84 135.78 999 bom 145 134 P_____O__PP_P_ SH131964 -10.68 135.86 -1 -11.00 135.70 999 -10.98 135.65 TC 29 999 -10.72 135.84 1 -10.98 135.75 TC 29 999 6 110
1964 SP EA 1964-01-30 00:00:00 TS -10.86 135.82 134 120 O_____P__OP_O_ jtwc_sh SH131964 -10.70 135.90 -1 -11.02 135.75 998 -11.00 135.70 TC 30 999 -10.73 135.89 1 -11.00 135.80 TC 30 999 6 110
1964 SP EA 03:00:00 TS -10.96 136.11 120 101 P_____P__PP_P_ SH131964 -10.80 136.15 -1 -11.12 136.08 998 -11.10 136.02 TC 31 998 -10.83 136.15 1 -11.10 136.10 TC 32 998 6 110
1964 SP EA 06:00:00 TS -11.06 136.39 101 92 O_____P__PP_O_ jtwc_sh SH131964 -10.90 136.40 -1 -11.22 136.40 997 -11.21 136.34 TC 32 998 -10.93 136.41 1 -11.20 136.40 TC 35 998 6 110
1964 SP EA 09:00:00 TS -11.16 136.67 92 92 P_____P__PP_P_ SH131964 -10.99 136.67 -1 -11.32 136.69 997 -11.31 136.64 TC 33 997 -11.03 136.65 1 -11.31 136.71 TC 35 997 6 111
1964 SP EA 11:00:00 TS -11.22 136.84 95 95 P_____P__PO_P_ SH131964 -11.06 136.83 -1 -11.39 136.86 997 -11.37 136.82 TC 34 997 -11.10 136.80 1 -11.37 136.91 TC 35 997 5 112
1964 SP EA 11:30:00 TS -11.24 136.88 997 bom 99 89 P_____O__PP_P_ SH131964 -11.08 136.87 -1 -11.40 136.90 997 -11.39 136.86 TC 34 997 -11.12 136.83 1 -11.39 136.96 TC 35 997 5 112
1964 SP EA 12:00:00 TS -11.26 136.92 89 89 O_____P__OP_O_ jtwc_sh SH131964 -11.10 136.90 -1 -11.41 136.94 996 -11.40 136.90 TC 35 997 -11.14 136.87 1 -11.40 137.00 TC 35 997 4 117
1964 SP EA 15:00:00 TS -11.35 137.10 93 93 P_____P__PP_P_ SH131964 -11.24 137.06 -1 -11.47 137.13 993 -11.46 137.10 TC 40 994 -11.25 137.06 1 -11.45 137.22 TC 40 994 4 120
1964 SP EA 18:00:00 TS -11.45 137.26 95 89 O_____P__PP_O_ jtwc_sh SH131964 -11.40 137.20 -1 -11.53 137.28 990 -11.52 137.26 TC 45 991 -11.37 137.23 1 -11.50 137.40 TC 45 991 4 124
1964 SP EA 21:00:00 TS -11.56 137.43 89 89 P_____P__PP_P_ SH131964 -11.55 137.40 -1 -11.61 137.41 987 -11.59 137.39 TC 50 988 -11.50 137.39 1 -11.58 137.57 TC 50 988 4 127
1964 SP EA 23:00:00 TS -11.65 137.53 95 86 P_____P__PO_P_ SH131964 -11.65 137.54 -1 -11.68 137.48 985 -11.66 137.46 TC 53 985 -11.60 137.50 2 -11.65 137.66 TC 53 985 4 131
1964 SP EA 23:30:00 TS -11.67 137.55 985 bom 93 93 P_____O__PP_P_ SH131964 -11.68 137.57 -1 -11.70 137.50 985 -11.68 137.48 TC 54 985 -11.62 137.53 2 -11.68 137.68 TC 54 985 4 134
1964 SP EA 1964-01-31 00:00:00 TS -11.70 137.58 93 86 O_____P__OP_O_ jtwc_sh SH131964 -11.70 137.60 -1 -11.73 137.52 984 -11.70 137.50 TC 55 985 -11.65 137.56 2 -11.70 137.70 TC 55 985 4 141
1964 SP EA 03:00:00 TS -11.86 137.71 88 88 P_____P__PP_P_ SH131964 -11.84 137.75 -1 -11.90 137.62 983 -11.87 137.61 TC 56 984 -11.81 137.74 2 -11.88 137.81 TC 55 984 4 144
1964 SP EA 06:00:00 TS -12.04 137.84 93 89 O_____P__PP_O_ jtwc_sh SH131964 -12.00 137.90 -1 -12.11 137.71 982 -12.07 137.70 TC 57 983 -11.99 137.92 2 -12.10 137.90 TC 55 983 5 146
1964 SP EA 09:00:00 TS -12.25 137.98 109 108 P_____P__PP_P_ SH131964 -12.19 138.11 -1 -12.33 137.81 981 -12.29 137.80 TC 58 982 -12.17 138.09 2 -12.31 137.99 TC 57 982 5 145
1964 SP EA 11:00:00 TS -12.38 138.08 120 120 P_____P__PO_P_ SH131964 -12.33 138.24 -1 -12.47 137.88 981 -12.43 137.86 TC 59 981 -12.30 138.20 2 -12.44 138.06 TC 59 981 5 144
1964 SP EA 11:30:00 TS -12.42 138.11 981 bom 120 120 P_____O__PP_P_ SH131964 -12.37 138.27 -1 -12.50 137.90 981 -12.47 137.88 TC 59 981 -12.33 138.22 2 -12.47 138.08 TC 59 981 5 148
1964 SP EA 12:00:00 TS -12.45 138.13 120 120 O_____P__OP_O_ jtwc_sh SH131964 -12.40 138.30 -1 -12.53 137.92 981 -12.50 137.90 TC 60 981 -12.37 138.25 2 -12.50 138.10 TC 60 981 5 146
1964 SP EA 15:00:00 TS -12.64 138.26 145 145 P_____P__PP_P_ SH131964 -12.61 138.42 -1 -12.70 138.06 981 -12.69 138.03 TC -12.59 138.38 2 -12.66 138.24 TC 60 981 4 146
1964 SP EA 18:00:00 TS -12.82 138.38 162 162 O_____P__PP_O_ jtwc_sh SH131964 -12.80 138.50 -1 -12.85 138.22 981 -12.87 138.18 TC -12.80 138.50 2 -12.80 138.40 TC 60 981 4 144
1964 SP EA 21:00:00 TS -12.99 138.51 180 180 P_____P__PP_P_ SH131964 -12.96 138.59 -1 -13.00 138.39 981 -13.04 138.34 TC -12.99 138.62 2 -12.95 138.55 TC 60 981 4 141
1964 SP EA 23:00:00 TS -13.08 138.60 981 bom 195 195 P_____O__PO_P_ SH131964 -13.06 138.66 -1 -13.10 138.50 981 -13.14 138.46 TC -13.10 138.70 1 -13.05 138.65 TC 60 981 4 137
1964 SP EA 1964-02-01 00:00:00 TS -13.13 138.65 205 205 O_____P__PP_O_ jtwc_sh SH131964 -13.10 138.70 -1 -13.15 138.56 980 -13.19 138.51 TC -13.14 138.75 1 -13.10 138.70 TC 60 981 4 132
1964 SP EA 03:00:00 TS -13.26 138.81 212 212 P_____P__PP_P_ SH131964 -13.22 138.84 -1 -13.31 138.73 980 -13.34 138.69 TC -13.24 138.89 1 -13.25 138.84 TC 60 980 4 128
1964 SP EA 06:00:00 TS -13.37 138.97 231 231 O_____P__PP_O_ jtwc_sh SH131964 -13.30 139.00 -1 -13.46 138.90 980 -13.48 138.86 TC -13.31 139.04 1 -13.40 139.00 TC 60 980 4 123
1964 SP EA 09:00:00 TS -13.47 139.13 240 240 P_____P__PP_P_ SH131964 -13.35 139.15 -1 -13.60 139.07 980 -13.60 139.03 TC -13.36 139.20 1 -13.57 139.21 TC 60 980 4 120
1964 SP EA 11:00:00 TS -13.53 139.24 250 241 P_____P__PO_P_ SH131964 -13.38 139.25 -1 -13.68 139.17 980 -13.67 139.15 TC -13.40 139.30 1 -13.66 139.34 TC 60 980 4 119
1964 SP EA 11:30:00 TS -13.54 139.27 980 bom 241 240 P_____O__PP_P_ SH131964 -13.39 139.28 -1 -13.70 139.20 980 -13.68 139.17 TC -13.41 139.32 1 -13.68 139.37 TC 60 980 3 115
1964 SP EA 12:00:00 TS -13.56 139.30 240 229 O_____P__OP_O_ jtwc_sh SH131964 -13.40 139.30 -1 -13.72 139.22 980 -13.70 139.20 TC 60 980 -13.42 139.35 1 -13.70 139.40 TC 60 980 3 123
1964 SP EA 15:00:00 TS -13.64 139.43 229 206 P_____P__PP_P_ SH131964 -13.50 139.44 -1 -13.81 139.35 980 -13.79 139.34 TC 60 980 -13.49 139.49 1 -13.76 139.51 TC 60 980 3 122
1964 SP EA 18:00:00 TS -13.72 139.56 206 194 O_____P__PP_O_ jtwc_sh SH131964 -13.60 139.60 -1 -13.89 139.46 980 -13.86 139.48 TC 60 980 -13.57 139.64 1 -13.80 139.60 TC 60 980 3 117
1964 SP EA 21:00:00 TS -13.79 139.73 194 183 P_____P__PP_P_ SH131964 -13.65 139.80 -1 -13.96 139.60 980 -13.93 139.63 TC 60 980 -13.64 139.79 1 -13.90 139.73 TC 60 980 4 113
1964 SP EA 23:00:00 TS -13.83 139.84 980 bom 183 172 P_____O__PO_P_ SH131964 -13.68 139.94 -1 -14.00 139.70 980 -13.98 139.74 TC 60 980 -13.70 139.90 1 -13.97 139.84 TC 60 980 4 112
1964 SP EA 1964-02-02 00:00:00 TS -13.86 139.90 172 151 O_____P__OP_O_ jtwc_sh SH131964 -13.70 140.00 -1 -14.02 139.76 979 -14.00 139.80 TC 60 980 -13.73 139.96 1 -14.00 139.90 TC 60 980 4 113
1964 SP EA 03:00:00 TS -13.94 140.08 151 130 P_____P__PP_P_ SH131964 -13.79 140.15 -1 -14.10 139.97 979 -14.07 140.01 TC 61 979 -13.81 140.13 1 -14.05 140.09 TC 62 979 4 114
1964 SP EA 06:00:00 TS -14.02 140.27 130 110 O_____P__PP_O_ jtwc_sh SH131964 -13.90 140.30 -1 -14.17 140.21 978 -14.14 140.24 TC 62 978 -13.91 140.30 1 -14.10 140.30 TC 65 978 4 114
1964 SP EA 09:00:00 TS -14.11 140.49 110 99 P_____P__PP_P_ SH131964 -13.99 140.50 -1 -14.24 140.45 977 -14.21 140.47 TC 63 977 -14.02 140.48 1 -14.19 140.55 TC 65 977 5 114
1964 SP EA 11:00:00 TS -14.18 140.64 977 bom 102 92 P_____O__PO_P_ SH131964 -14.06 140.64 -1 -14.30 140.60 977 -14.27 140.62 TC 64 977 -14.10 140.60 2 -14.26 140.72 TC 65 977 5 116
1964 SP EA 12:00:00 TS -14.21 140.71 92 68 O_____P__OP_O_ jtwc_sh SH131964 -14.10 140.70 -1 -14.31 140.67 976 -14.30 140.70 TC 65 977 -14.14 140.66 2 -14.30 140.80 TC 65 977 4 119
1964 SP EA 15:00:00 TS -14.31 140.89 68 44 P_____P__PP_P_ SH131964 -14.23 140.85 -1 -14.35 140.87 976 -14.38 140.92 TC 65 976 -14.27 140.84 2 -14.40 141.01 TC 67 976 4 123
1964 SP EA 18:00:00 TS -14.44 141.07 44 24 O_____P__PP_O_ jtwc_sh SH131964 -14.40 141.00 -1 -14.42 141.07 975 -14.49 141.13 TC 65 975 -14.42 141.02 2 -14.50 141.20 TC 70 975 5 127
1964 SP EA 21:00:00 TS -14.59 141.27 24 21 P_____P__PP_P_ SH131964 -14.59 141.21 -1 -14.56 141.27 974 -14.62 141.32 TC 65 974 -14.58 141.19 2 -14.58 141.40 TC 65 974 5 131
1964 SP EA 23:00:00 TS -14.71 141.39 974 bom 21 21 P_____O__PO_P_ SH131964 -14.73 141.34 -1 -14.70 141.40 974 4 -14.73 141.44 TC 65 974 -14.70 141.30 2 -14.65 141.53 TC 61 974 5 136
1964 SP EA 1964-02-03 00:00:00 TS -14.78 141.45 15 10 O_____P__OP_O_ jtwc_sh SH131964 -14.80 141.40 -1 -14.80 141.47 974 -14.80 141.50 TC 65 974 -14.76 141.35 2 -14.70 141.60 TC 60 974 6 142
1964 SP EA 02:00:00 TS -14.93 141.57 974 bom 10 10 P_____O__PP_P_ SH131964 -14.93 141.48 -1 -15.00 141.60 974 -14.96 141.63 TC 65 974 -14.89 141.46 2 -14.85 141.76 TC 56 974 6 144
1964 SP EA 03:00:00 TS -15.00 141.62 10 0 P_____P__PP_P_ SH131964 -15.00 141.52 -1 -15.08 141.68 974 -15.05 141.69 TC 65 974 -14.95 141.50 2 -14.94 141.84 TC 55 974 5 148
1964 SP EA 05:00:00 TS -15.15 141.71 bom 0 0 P_____I__PP_P_ SH131964 -15.13 141.57 -1 -15.20 141.80 974 -15.22 141.78 TC 65 974 -15.08 141.59 2 -15.11 141.96 TC 51 974 5 151
1964 SP EA 06:00:00 TS -15.22 141.74 0 0 O_____P__IP_O_ jtwc_sh SH131964 -15.20 141.60 -1 -15.27 141.82 974 -15.30 141.80 TC 65 974 -15.15 141.64 2 -15.20 142.00 TC 50 974 4 165
1964 SP EA 09:00:00 TS -15.43 141.78 0 0 P_____P__PP_P_ SH131964 -15.40 141.71 -1 -15.47 141.77 974 -15.51 141.78 TC 65 974 -15.36 141.74 2 -15.41 141.99 TC 45 974 4 173
1964 SP EA 11:00:00 TS -15.56 141.78 975 bom 0 0 P_____O__PO_P_ SH131964 -15.53 141.77 -1 -15.60 141.70 975 -15.64 141.73 TC 65 974 -15.50 141.80 4 -15.54 141.93 TC 41 974 4 0
1964 SP EA 12:00:00 TS -15.62 141.79 0 0 O_____P__OP_O_ jtwc_sh SH131964 -15.60 141.80 -1 -15.66 141.69 976 -15.70 141.70 TC 65 975 -15.57 141.82 4 -15.60 141.90 TC 40 975 4 0
1964 SP EA 15:00:00 TS -15.81 141.79 0 0 P_____P__PP_P_ SH131964 -15.80 141.87 -1 -15.84 141.65 979 -15.88 141.66 TC 61 978 -15.77 141.88 4 -15.75 141.84 TC 37 978 4 180
1964 SP EA 18:00:00 TS -15.99 141.79 0 0 O_____P__PP_O_ jtwc_sh SH131964 -16.00 141.90 -1 -16.01 141.63 983 -16.05 141.63 TC 57 982 -15.97 141.90 4 -15.90 141.80 TC 35 982 4 0
1964 SP EA 21:00:00 TS -16.18 141.79 0 0 P_____P__PP_P_ SH131964 -16.20 141.91 -1 -16.18 141.61 986 -16.22 141.61 TC 53 985 -16.17 141.91 4 -16.09 141.79 TC 35 985 4 185
1964 SP EA 23:00:00 TS -16.31 141.79 989 bom 0 0 P_____O__PO_P_ SH131964 -16.33 141.91 -1 -16.30 141.60 989 -16.34 141.60 TC 51 987 -16.30 141.90 2 -16.23 141.80 TC 35 987 4 0
1964 SP EA 1964-02-04 00:00:00 TS -16.37 141.78 0 0 O_____P__OP_O_ jtwc_sh SH131964 -16.40 141.90 -1 -16.36 141.60 989 -16.40 141.60 TC 50 989 -16.37 141.90 2 -16.30 141.80 TC 35 989 4 0
1964 SP EA 03:00:00 TS -16.57 141.76 0 0 P_____P__PP_P_ SH131964 -16.60 141.85 -1 -16.55 141.59 990 -16.59 141.59 TC 47 990 -16.57 141.88 2 -16.50 141.80 TC 35 990 4 187
1964 SP EA 06:00:00 TS -16.77 141.74 0 0 O_____P__PP_O_ jtwc_sh SH131964 -16.80 141.80 -1 -16.75 141.59 991 -16.78 141.59 TC 45 991 -16.77 141.85 2 -16.70 141.80 TC 35 991 4 181
1964 SP EA 09:00:00 TS -16.97 141.73 0 0 P_____P__PP_P_ SH131964 -17.01 141.79 -1 -16.96 141.59 992 -16.99 141.59 TC 42 992 -16.97 141.82 2 -16.90 141.80 TC 35 992 4 0
1964 SP EA 11:00:00 TS -17.11 141.73 993 bom 0 0 P_____O__PO_P_ SH131964 -17.14 141.80 -1 -17.10 141.60 993 -17.13 141.60 TC 40 992 -17.10 141.80 1 -17.03 141.80 TC 35 992 4 0
1964 SP EA 12:00:00 TS -17.17 141.73 0 0 O_____P__OP_O_ jtwc_sh SH131964 -17.20 141.80 -1 -17.17 141.61 993 -17.20 141.60 TC 40 993 -17.16 141.80 1 -17.10 141.80 TC 35 993 4 0
1964 SP EA 15:00:00 TS -17.36 141.74 0 0 P_____P__PP_P_ SH131964 -17.35 141.80 -1 -17.40 141.63 994 -17.42 141.62 TC 38 994 -17.33 141.79 1 -17.29 141.79 TC 35 994 4 0
1964 SP EA 18:00:00 TS -17.55 141.75 0 0 O_____P__PP_O_ jtwc_sh SH131964 -17.50 141.80 -1 -17.63 141.66 995 -17.65 141.65 TC 37 995 -17.50 141.79 1 -17.50 141.80 TC 35 995 4 0
1964 SP EA 21:00:00 TS -17.76 141.77 0 0 P_____P__PP_P_ SH131964 -17.69 141.80 -1 -17.85 141.69 997 -17.88 141.68 TC 36 996 -17.67 141.80 1 -17.75 141.85 TC 35 996 4 173
1964 SP EA 23:00:00 TS -17.90 141.78 998 bom 0 0 P_____O__PO_P_ SH131964 -17.83 141.80 -1 -18.00 141.70 998 -18.03 141.69 TC 35 997 -17.80 141.80 1 -17.92 141.89 TC 35 997 4 0
1964 SP EA 1964-02-05 00:00:00 TS -17.97 141.79 0 0 O_____P__OP_O_ jtwc_sh SH131964 -17.90 141.80 -1 -18.07 141.71 998 -18.10 141.70 TC 35 998 -17.87 141.81 1 -18.00 141.90 TC 35 998 4 176
1964 SP EA 03:00:00 TS -18.18 141.80 0 0 P_____P__PP_P_ SH131964 -18.09 141.80 -1 -18.28 141.73 998 -18.32 141.73 TC 33 998 -18.10 141.83 1 -18.21 141.91 TC 35 998 4 179
1964 SP EA 06:00:00 TS -18.39 141.81 0 0 O_____P__PP_O_ jtwc_sh SH131964 -18.30 141.80 -1 -18.48 141.75 998 -18.52 141.75 TC 32 998 -18.33 141.84 1 -18.40 141.90 TC 35 998 4 177
1964 SP EA 09:00:00 TS -18.61 141.81 0 0 P_____P__PP_P_ SH131964 -18.55 141.81 -1 -18.67 141.73 998 -18.72 141.75 TC 31 998 -18.56 141.83 1 -18.61 141.92 TC 35 998 4 181
1964 SP EA 11:00:00 TS -18.75 141.79 999 bom 0 0 P_____O__PO_P_ SH131964 -18.72 141.81 -1 -18.80 141.70 999 -18.84 141.72 TC 30 998 -18.70 141.80 1 -18.74 141.92 TC 35 998 4 192
1964 SP EA 12:00:00 TS -18.82 141.78 0 0 O_____P__OP_O_ jtwc_sh SH131964 -18.80 141.80 -1 -18.87 141.68 999 -18.90 141.70 TC 30 999 -18.78 141.78 1 -18.80 141.90 TC 35 999 4 199
1964 SP EA 15:00:00 TS -19.03 141.69 0 0 P_____P__PP_P_ SH131964 -19.02 141.73 -1 -19.09 141.60 999 -19.10 141.61 TC 30 999 -19.00 141.69 1 -18.95 141.77 TC 32 999 4 208
1964 SP EA 18:00:00 TS -19.21 141.55 0 0 O_____P__PP_O_ jtwc_sh SH131964 -19.20 141.60 -1 -19.29 141.48 1000 -19.27 141.47 TC 30 1000 -19.19 141.57 1 -19.10 141.60 TC 30 1000 4 219
1964 SP EA 21:00:00 TS -19.36 141.40 0 0 P_____P__PP_P_ SH131964 -19.33 141.42 -1 -19.44 141.33 1000 -19.42 141.30 TC 30 1000 -19.34 141.42 1 -19.33 141.52 TC 30 1000 4 229
1964 SP EA 23:00:00 TS -19.43 141.28 1001 bom 0 0 P_____O__PO_P_ SH131964 -19.38 141.27 -1 -19.50 141.20 1001 -19.48 141.17 TC 30 1000 -19.40 141.30 1 -19.46 141.45 TC 30 1000 4 242
1964 SP EA 1964-02-06 00:00:00 TS -19.46 141.21 0 0 O_____P__OP_O_ jtwc_sh SH131964 -19.40 141.20 -1 -19.52 141.13 1000 -19.50 141.10 TC 30 1001 -19.42 141.24 1 -19.50 141.40 TC 30 1001 4 263
1964 SP EA 03:00:00 TS -19.47 140.99 0 0 P_____P__PP_P_ SH131964 -19.43 141.01 -1 -19.52 140.87 1000 -19.52 140.88 TC 30 1000 -19.42 141.02 1 -19.49 141.17 TC 30 1000 4 275
1964 SP EA 06:00:00 TS -19.42 140.75 0 0 O_____P__PP_O_ jtwc_sh SH131964 -19.40 140.80 -1 -19.46 140.60 1000 -19.48 140.63 TC 30 1000 -19.37 140.79 1 -19.40 140.90 TC 30 1000 5 285
1964 SP EA 09:00:00 TS -19.34 140.50 0 0 P_____P__PP_P_ SH131964 -19.32 140.54 -1 -19.37 140.35 1000 -19.40 140.40 TC 30 1000 -19.27 140.55 1 -19.36 140.63 TC 30 1000 5 291
1964 SP EA 11:00:00 TS -19.27 140.35 1000 bom 0 0 P_____O__PO_P_ SH131964 -19.24 140.37 -1 -19.30 140.20 1000 -19.34 140.26 TC 30 1000 -19.20 140.40 1 -19.32 140.47 TC 30 1000 5 296
1964 SP EA 12:00:00 TS -19.24 140.28 0 0 O_____P__OP_O_ jtwc_sh SH131964 -19.20 140.30 -1 -19.28 140.15 1000 -19.30 140.20 TC 30 1000 -19.17 140.33 1 -19.30 140.40 TC 30 1000 4 306
1964 SP EA 15:00:00 TS -19.12 140.13 0 0 P_____P__PP_P_ SH131964 -19.05 140.14 -1 -19.19 140.02 1000 -19.20 140.06 TC 30 1000 -19.05 140.13 1 -19.21 140.28 TC 30 1000 4 313
1964 SP EA 18:00:00 TS -19.00 140.01 0 0 O_____P__PP_O_ jtwc_sh SH131964 -18.90 140.00 -1 -19.10 139.93 1000 -19.07 139.96 TC 30 1000 -18.91 139.95 1 -19.10 140.20 TC 30 1000 3 314
1964 SP EA 21:00:00 TS -18.88 139.87 0 0 P_____P__PP_P_ SH131964 -18.79 139.79 -1 -18.98 139.85 1000 -18.94 139.88 TC 30 1000 -18.78 139.79 1 -19.01 140.10 TC 30 1000 3 311
1964 SP EA 23:00:00 TS -18.81 139.78 1000 bom 0 0 P_____O__PO_P_ SH131964 -18.73 139.66 -1 -18.90 139.80 1000 -18.85 139.83 TC 30 1000 -18.70 139.70 1 -18.94 140.03 TC 30 1000 3 312
1964 SP EA 1964-02-07 00:00:00 TS -18.77 139.73 0 0 O_____P__OP_O_ jtwc_sh SH131964 -18.70 139.60 -1 -18.85 139.76 999 -18.80 139.80 TC 30 1000 -18.67 139.65 1 -18.90 140.00 TC 30 1000 3 316
1964 SP EA 03:00:00 TS -18.65 139.62 0 0 P_____P__PP_P_ SH131964 -18.59 139.48 -1 -18.70 139.63 997 -18.67 139.71 TC 33 997 -18.58 139.51 1 -18.76 139.90 TC 32 997 3 320
1964 SP EA 06:00:00 TS -18.53 139.52 0 0 O_____P__PP_O_ jtwc_sh SH131964 -18.50 139.40 -1 -18.54 139.51 994 -18.54 139.61 TC 37 995 -18.51 139.40 1 -18.60 139.80 TC 35 995 3 321
1964 SP EA 09:00:00 TS -18.43 139.43 0 0 P_____P__PP_P_ SH131964 -18.45 139.34 -1 -18.39 139.43 992 -18.42 139.51 TC 41 993 -18.44 139.32 1 -18.44 139.68 TC 37 993 2 322
1964 SP EA 11:00:00 TS -18.37 139.39 991 bom 0 0 P_____O__PO_P_ SH131964 -18.42 139.31 -1 -18.30 139.40 991 -18.34 139.44 TC 43 991 -18.40 139.30 2 -18.34 139.62 TC 39 991 2 328
1964 SP EA 12:00:00 TS -18.34 139.38 0 0 O_____P__OP_O_ jtwc_sh SH131964 -18.40 139.30 -1 -18.26 139.40 991 -18.30 139.40 TC 45 991 -18.37 139.29 2 -18.30 139.60 TC 40 991 2 0
1964 SP EA 15:00:00 TS -18.25 139.37 0 0 P_____P___P_P_ SH131964 -18.30 139.27 -1 -18.17 139.43 991 TC -18.29 139.28 2 -18.18 139.62 TC 40 991 2 13
1964 SP EA 18:00:00 TS -18.16 139.42 0 0 O_____P___P_O_ jtwc_sh SH131964 -18.20 139.30 -1 -18.09 139.51 991 TC -18.21 139.31 2 -18.10 139.70 TC 40 991 2 43
1964 SP EA 21:00:00 TS -18.11 139.50 0 0 P_____P___P_P_ SH131964 -18.14 139.41 -1 -18.03 139.62 991 TC -18.14 139.41 2 -18.04 139.80 TC 40 991 2 64
1964 SP EA 23:00:00 TS -18.09 139.58 991 bom 0 0 P_____O___O_P_ SH131964 -18.11 139.53 -1 -18.00 139.70 991 TC -18.10 139.50 2 -18.01 139.87 TC 40 991 2 77
1964 SP EA 1964-02-08 00:00:00 TS -18.09 139.61 0 0 O_________P_O_ jtwc_sh SH131964 -18.10 139.60 -1 -18.09 139.56 2 -18.00 139.90 TC 40 991 3 79
1964 SP EA 03:00:00 TS -18.05 139.82 0 0 P_________P___ SH131964 -18.04 139.84 -1 -18.06 139.78 2 TC 5 80
1964 SP EA 06:00:00 TS -18.01 140.08 0 0 O_________P___ jtwc_sh SH131964 -18.00 140.10 -1 -18.04 140.04 2 5 85
1964 SP EA 09:00:00 TS -18.01 140.34 0 0 P_________P___ SH131964 -18.00 140.36 -1 -18.02 140.32 2 5 89
1964 SP EA 11:00:00 TS -18.00 140.51 0 0 P_________O___ SH131964 -18.00 140.52 -1 -18.00 140.50 1 5 87
1964 SP EA 12:00:00 TS -17.99 140.59 0 0 O_________P___ jtwc_sh SH131964 -18.00 140.60 -1 -17.98 140.57 1 4 78
1964 SP EA 15:00:00 TS -17.95 140.79 0 0 P_________P___ SH131964 -17.96 140.80 -1 -17.93 140.77 1 4 75
1964 SP EA 18:00:00 TS -17.89 140.99 0 0 O_________P___ jtwc_sh SH131964 -17.90 141.00 -1 -17.87 140.98 1 4 76
1964 SP EA 21:00:00 TS -17.84 141.23 0 0 P_________P___ SH131964 -17.85 141.23 -1 -17.82 141.21 1 5 79
1964 SP EA 23:00:00 TS -17.81 141.41 0 0 P_________O___ SH131964 -17.82 141.41 -1 -17.80 141.40 1 5 79
1964 SP EA 1964-02-09 00:00:00 TS -17.79 141.49 0 0 O_________P___ jtwc_sh SH131964 -17.80 141.50 -1 -17.78 141.47 1 5 77
1964 SP EA 03:00:00 TS -17.74 141.73 0 0 P_________P___ SH131964 -17.73 141.75 -1 -17.74 141.70 1 6 81
1964 SP EA 06:00:00 TS -17.71 142.08 0 0 O_________P___ jtwc_sh SH131964 -17.70 142.10 -1 -17.73 142.03 1 8 89
1964 SP EA 09:00:00 TS -17.72 142.55 0 0 P_________P___ SH131964 -17.71 142.56 -1 -17.75 142.53 1 11 94
1964 SP EA 11:00:00 TS -17.77 143.01 0 0 P_________O___ SH131964 -17.76 143.01 -1 -17.80 143.00 1 15 97
1964 SP EA 12:00:00 TS -17.81 143.30 0 0 O_________P___ jtwc_sh SH131964 -17.80 143.30 -1 -17.83 143.31 1 21 98
1964 SP EA 15:00:00 TS -17.98 144.46 0 0 P_________P___ SH131964 -17.98 144.46 -1 -17.97 144.45 1 24 99
1964 SP EA 18:00:00 TS -18.18 145.78 0 0 O_________P___ jtwc_sh SH131964 -18.20 145.80 -1 -18.15 145.75 1 25 99
1964 SP EA 21:00:00 TS -18.39 147.06 87 87 P_________P___ SH131964 -18.40 147.05 -1 -18.36 147.08 1 24 100
1964 SP EA 23:00:00 TS -18.52 147.86 113 109 P_________O___ SH131964 -18.53 147.84 -1 -18.50 147.90 1 20 22 101
1964 SP EA 1964-02-10 00:00:00 TS -18.59 148.22 122 122 O_________P___ jtwc_sh SH131964 -18.60 148.20 -1 -18.57 148.25 1 20 19 102
1964 SP EA 03:00:00 TS -18.80 149.17 164 164 P_________P___ SH131964 -18.79 149.15 -1 -18.81 149.21 1 20 18 104
1964 SP EA 06:00:00 TS -19.02 150.03 192 192 O_________P___ jtwc_sh SH131964 -19.00 150.00 -1 -19.05 150.09 1 21 17 106
1964 SP EA 09:00:00 TS -19.27 150.88 246 246 P_________P___ SH131964 -19.26 150.87 -1 -19.27 150.89 1 22 17 107
1964 SP EA 11:00:00 TS -19.42 151.42 288 288 P_________O___ SH131964 -19.43 151.43 -1 -19.40 151.40 1 23 16 106
1964 SP EA 12:00:00 TS -19.48 151.69 313 313 O_________P___ jtwc_sh SH131964 -19.50 151.70 -1 -19.45 151.67 1 23 15 101
1964 SP EA 15:00:00 TS -19.62 152.48 364 364 P_________P___ SH131964 -19.63 152.50 -1 -19.59 152.45 1 23 14 99
1964 SP EA 18:00:00 TS -19.70 153.19 398 398 O_________P___ jtwc_sh SH131964 -19.70 153.20 -1 -19.69 153.18 1 23 13 97
1964 SP EA 21:00:00 TS -19.76 153.80 433 433 P_________P___ SH131964 -19.76 153.80 -1 -19.76 153.82 1 23 11 96
1964 SP EA 23:00:00 TS -19.79 154.16 464 464 P_________O___ SH131964 -19.79 154.14 -1 -19.80 154.20 1 23 10 95
1964 SP EA 1964-02-11 00:00:00 TS -19.81 154.32 472 472 O_________P___ jtwc_sh SH131964 -19.80 154.30 -1 -19.82 154.37 1 22 9 96
1964 SP EA 03:00:00 TS -19.86 154.80 506 506 P_________P___ SH131964 -19.86 154.78 -1 -19.86 154.83 1 20 8 96
1964 SP EA 06:00:00 TS -19.89 155.21 540 540 O_________P___ jtwc_sh SH131964 -19.90 155.20 -1 -19.88 155.22 1 18 7 93
1964 SP EA 09:00:00 TS -19.90 155.56 576 576 P_________P___ SH131964 -19.90 155.56 -1 -19.89 155.57 1 16 7 91
1964 SP EA 11:00:00 TS -19.90 155.79 594 594 P_________O___ SH131964 -19.90 155.78 -1 -19.90 155.80 1 15 6 91
1964 SP EA 12:00:00 TS -19.90 155.91 603 603 O_________P___ jtwc_sh SH131964 -19.90 155.90 -1 -19.91 155.92 1 14 7 94
1964 SP EA 15:00:00 TS -19.93 156.28 628 628 P_________P___ SH131964 -19.94 156.28 -1 -19.93 156.28 1 11 7 95
1964 SP EA 18:00:00 TS -19.97 156.67 640 640 O_________P___ jtwc_sh SH131964 -20.00 156.70 -1 -19.95 156.66 1 9 7 94
1964 SP EA 21:00:00 NR -19.98 157.04 657 657 __________P___ SH131964 -1 -19.98 157.04 1 6 7 93
1964 SP EA 23:00:00 NR -20.00 157.30 675 __________O___ SH131964 -1 -20.00 157.30 1 5 7 94